NOZ405 LFPO-LLBG
Flight info
| Callsign | NOZ405 |
|---|---|
| Flight time | N/A |
| Altitude | 35000 |
| Route | BUBLI DCT LUPEN DCT BATUB DCT MOMUK DCT GEDSO DCT VEKEN DCT NEMEK DCT MEDUX UM867 KOGAT DCT ERANA UL737 TSL UN130 PIVOS/N0460F370 UN130 MES UL609 ALKIS DCT APLON DCT PIKOG L609 ZUKKO |
| Aircraft | B738/M-SDE2E3FGHIRWXY/LB1 |
Departure
| Time | 2026-05-04 11:28 |
|---|---|
| Airport | Paris-Orly Airport (LFPO) |
Arrival
| Time | N/A |
|---|---|
| Airport | Ben Gurion International Airport (LLBG) |
| Time | Latitude | Longitude | Altitude | Speed | Heading |
|---|---|---|---|---|---|
| 2026-05-04 10:56 | 48.72899 | 2.35661 | 298 ft | 0 kts | 118° |
| 2026-05-04 11:16 | 48.72927 | 2.35527 | 301 ft | 0 kts | 164° |
| 2026-05-04 11:19 | 48.72692 | 2.35628 | 298 ft | 18 kts | 164° |
| 2026-05-04 11:19 | 48.72574 | 2.35685 | 300 ft | 18 kts | 164° |
| 2026-05-04 11:19 | 48.72496 | 2.35696 | 300 ft | 17 kts | 191° |
| 2026-05-04 11:19 | 48.72438 | 2.35555 | 300 ft | 16 kts | 260° |
| 2026-05-04 11:20 | 48.72410 | 2.35390 | 299 ft | 16 kts | 255° |
| 2026-05-04 11:20 | 48.72381 | 2.35232 | 299 ft | 15 kts | 255° |
| 2026-05-04 11:20 | 48.72354 | 2.35080 | 300 ft | 15 kts | 255° |
| 2026-05-04 11:20 | 48.72347 | 2.34932 | 301 ft | 14 kts | 283° |
| 2026-05-04 11:22 | 48.72424 | 2.33678 | 300 ft | 21 kts | 243° |
| 2026-05-04 11:22 | 48.72358 | 2.33482 | 296 ft | 21 kts | 242° |
| 2026-05-04 11:23 | 48.72290 | 2.33294 | 299 ft | 20 kts | 242° |
| 2026-05-04 11:23 | 48.72225 | 2.33111 | 297 ft | 19 kts | 242° |
| 2026-05-04 11:24 | 48.71828 | 2.31986 | 301 ft | 20 kts | 245° |
| 2026-05-04 11:25 | 48.71833 | 2.31803 | 301 ft | 15 kts | 296° |
| 2026-05-04 11:25 | 48.71862 | 2.31752 | 297 ft | 0 kts | 324° |
| 2026-05-04 11:27 | 48.72352 | 2.32669 | 300 ft | 95 kts | 60° |
| 2026-05-04 11:28 | 48.72748 | 2.33796 | 301 ft | 146 kts | 62° |
| 2026-05-04 11:28 | 48.73275 | 2.35314 | 425 ft | 175 kts | 60° |
| 2026-05-04 11:28 | 48.73883 | 2.37040 | 673 ft | 200 kts | 62° |
| 2026-05-04 11:28 | 48.74558 | 2.38995 | 939 ft | 218 kts | 60° |
| 2026-05-04 11:29 | 48.75327 | 2.41097 | 1140 ft | 238 kts | 60° |
| 2026-05-04 11:29 | 48.76096 | 2.43378 | 1614 ft | 245 kts | 71° |
| 2026-05-04 11:29 | 48.76216 | 2.45889 | 2340 ft | 236 kts | 100° |
| 2026-05-04 11:29 | 48.75946 | 2.48360 | 2976 ft | 240 kts | 99° |
| 2026-05-04 11:31 | 48.75403 | 2.67378 | 6679 ft | 304 kts | 90° |
| 2026-05-04 11:33 | 48.76992 | 2.89734 | 10893 ft | 351 kts | 84° |
| 2026-05-04 11:33 | 48.77281 | 2.93495 | 11093 ft | 367 kts | 84° |
| 2026-05-04 11:33 | 48.77579 | 2.97390 | 11570 ft | 374 kts | 84° |
| 2026-05-04 11:34 | 48.77957 | 3.01306 | 12228 ft | 376 kts | 81° |
| 2026-05-04 11:34 | 48.78420 | 3.05159 | 12851 ft | 379 kts | 79° |
| 2026-05-04 11:34 | 48.78919 | 3.09112 | 13381 ft | 384 kts | 80° |
| 2026-05-04 11:34 | 48.79420 | 3.13119 | 13947 ft | 388 kts | 80° |
| 2026-05-04 11:35 | 48.79915 | 3.17166 | 14493 ft | 391 kts | 80° |
| 2026-05-04 11:35 | 48.80404 | 3.21240 | 15011 ft | 395 kts | 81° |
| 2026-05-04 11:35 | 48.80891 | 3.25359 | 15528 ft | 398 kts | 81° |
| 2026-05-04 11:35 | 48.81379 | 3.29511 | 16036 ft | 402 kts | 81° |
| 2026-05-04 11:36 | 48.81871 | 3.33713 | 16537 ft | 406 kts | 81° |
| 2026-05-04 11:36 | 48.82294 | 3.37969 | 17044 ft | 409 kts | 89° |
| 2026-05-04 11:36 | 48.82162 | 3.42267 | 17543 ft | 410 kts | 97° |
| 2026-05-04 11:36 | 48.81836 | 3.46589 | 18054 ft | 413 kts | 98° |
| 2026-05-04 11:37 | 48.81493 | 3.50941 | 18468 ft | 417 kts | 99° |
| 2026-05-04 11:37 | 48.81161 | 3.55349 | 18802 ft | 423 kts | 98° |
| 2026-05-04 11:37 | 48.80848 | 3.59798 | 19253 ft | 425 kts | 98° |
| 2026-05-04 11:37 | 48.80552 | 3.64214 | 19729 ft | 426 kts | 98° |
| 2026-05-04 11:38 | 48.80259 | 3.68698 | 20178 ft | 429 kts | 98° |
| 2026-05-04 11:38 | 48.79965 | 3.73210 | 20593 ft | 431 kts | 98° |
| 2026-05-04 11:38 | 48.79668 | 3.77756 | 21007 ft | 434 kts | 98° |
| 2026-05-04 11:38 | 48.79367 | 3.82328 | 21417 ft | 436 kts | 99° |
| 2026-05-04 11:39 | 48.79060 | 3.86916 | 21818 ft | 439 kts | 99° |
| 2026-05-04 11:39 | 48.78751 | 3.91533 | 22199 ft | 441 kts | 99° |
| 2026-05-04 11:40 | 48.77429 | 4.16761 | 24295 ft | 453 kts | 97° |
| 2026-05-04 11:41 | 48.77247 | 4.21541 | 24603 ft | 455 kts | 97° |
| 2026-05-04 11:41 | 48.77059 | 4.26347 | 24810 ft | 459 kts | 97° |
| 2026-05-04 11:41 | 48.76825 | 4.31193 | 25051 ft | 460 kts | 99° |
| 2026-05-04 11:41 | 48.76454 | 4.35994 | 25323 ft | 461 kts | 101° |
| 2026-05-04 11:42 | 48.76022 | 4.40764 | 25517 ft | 464 kts | 102° |
| 2026-05-04 11:42 | 48.75565 | 4.45632 | 25739 ft | 467 kts | 102° |
| 2026-05-04 11:42 | 48.75114 | 4.50502 | 26083 ft | 468 kts | 102° |
| 2026-05-04 11:42 | 48.74675 | 4.55390 | 26413 ft | 469 kts | 102° |
| 2026-05-04 11:43 | 48.74245 | 4.60310 | 26689 ft | 472 kts | 102° |
| 2026-05-04 11:43 | 48.73821 | 4.65251 | 26948 ft | 474 kts | 102° |
| 2026-05-04 11:43 | 48.73399 | 4.70210 | 27218 ft | 476 kts | 102° |
| 2026-05-04 11:43 | 48.72975 | 4.75193 | 27520 ft | 477 kts | 102° |
| 2026-05-04 11:44 | 48.72552 | 4.80173 | 27881 ft | 476 kts | 102° |
| 2026-05-04 11:44 | 48.72126 | 4.85151 | 28190 ft | 476 kts | 102° |
| 2026-05-04 11:44 | 48.71697 | 4.90124 | 28490 ft | 476 kts | 102° |
| 2026-05-04 11:44 | 48.71266 | 4.95090 | 28858 ft | 475 kts | 102° |
| 2026-05-04 11:45 | 48.70833 | 5.00045 | 29275 ft | 474 kts | 102° |
| 2026-05-04 11:45 | 48.70400 | 5.04980 | 29662 ft | 473 kts | 102° |
| 2026-05-04 11:45 | 48.69965 | 5.09912 | 30030 ft | 472 kts | 102° |
| 2026-05-04 11:45 | 48.69533 | 5.14775 | 30348 ft | 472 kts | 102° |
| 2026-05-04 11:46 | 48.69094 | 5.19686 | 30638 ft | 471 kts | 103° |
| 2026-05-04 11:46 | 48.68648 | 5.24661 | 30854 ft | 471 kts | 103° |
| 2026-05-04 11:46 | 48.68204 | 5.29580 | 31024 ft | 473 kts | 103° |
| 2026-05-04 11:46 | 48.67763 | 5.34444 | 31251 ft | 473 kts | 103° |
| 2026-05-04 11:47 | 48.67316 | 5.39364 | 31566 ft | 471 kts | 103° |
| 2026-05-04 11:47 | 48.66869 | 5.44268 | 31905 ft | 470 kts | 103° |
| 2026-05-04 11:47 | 48.66420 | 5.49153 | 32187 ft | 469 kts | 103° |
| 2026-05-04 11:47 | 48.65967 | 5.54057 | 32421 ft | 469 kts | 103° |
| 2026-05-04 11:48 | 48.65514 | 5.58947 | 32662 ft | 469 kts | 103° |
| 2026-05-04 11:48 | 48.65059 | 5.63825 | 32923 ft | 468 kts | 103° |